sensor_id;sensor_type;location;lat;lon;timestamp;pressure;altitude;pressure_sealevel;temperature;humidity
56689;BME280;42565;53.342;-1.534;2023-02-19T00:01:07;99323.02;;;9.41;74.38
56689;BME280;42565;53.342;-1.534;2023-02-19T00:03:35;99322.41;;;9.90;72.73
56689;BME280;42565;53.342;-1.534;2023-02-19T00:06:03;99319.78;;;9.47;73.06
56689;BME280;42565;53.342;-1.534;2023-02-19T00:08:31;99323.33;;;9.68;72.55
56689;BME280;42565;53.342;-1.534;2023-02-19T00:11:00;99332.00;;;9.55;71.43
56689;BME280;42565;53.342;-1.534;2023-02-19T00:13:27;99329.66;;;9.13;73.86
56689;BME280;42565;53.342;-1.534;2023-02-19T00:15:55;99329.01;;;9.35;73.76
56689;BME280;42565;53.342;-1.534;2023-02-19T00:18:23;99325.54;;;9.28;74.76
56689;BME280;42565;53.342;-1.534;2023-02-19T00:20:50;99341.07;;;9.83;74.55
56689;BME280;42565;53.342;-1.534;2023-02-19T00:23:17;99336.73;;;8.92;76.82
56689;BME280;42565;53.342;-1.534;2023-02-19T00:25:44;99340.92;;;9.04;76.81
56689;BME280;42565;53.342;-1.534;2023-02-19T00:28:12;99345.07;;;9.43;74.89
56689;BME280;42565;53.342;-1.534;2023-02-19T00:30:39;99345.90;;;9.40;75.18
56689;BME280;42565;53.342;-1.534;2023-02-19T00:33:05;99341.93;;;9.05;75.90
56689;BME280;42565;53.342;-1.534;2023-02-19T00:35:33;99349.26;;;9.07;76.66
56689;BME280;42565;53.342;-1.534;2023-02-19T00:38:00;99342.35;;;8.72;78.22
56689;BME280;42565;53.342;-1.534;2023-02-19T00:40:27;99335.25;;;8.91;76.98
56689;BME280;42565;53.342;-1.534;2023-02-19T00:42:55;99349.18;;;8.64;77.37
56689;BME280;42565;53.342;-1.534;2023-02-19T00:45:22;99356.97;;;8.67;76.80
56689;BME280;42565;53.342;-1.534;2023-02-19T00:47:49;99367.14;;;8.52;75.97
56689;BME280;42565;53.342;-1.534;2023-02-19T00:50:17;99360.64;;;8.27;75.88
56689;BME280;42565;53.342;-1.534;2023-02-19T00:52:44;99370.56;;;8.29;76.12
56689;BME280;42565;53.342;-1.534;2023-02-19T00:55:11;99359.71;;;8.92;73.64
56689;BME280;42565;53.342;-1.534;2023-02-19T00:57:38;99357.49;;;8.82;72.70
56689;BME280;42565;53.342;-1.534;2023-02-19T01:00:05;99369.75;;;8.76;72.16
56689;BME280;42565;53.342;-1.534;2023-02-19T01:02:33;99372.26;;;9.05;71.43
56689;BME280;42565;53.342;-1.534;2023-02-19T01:04:59;99377.30;;;8.98;71.79
56689;BME280;42565;53.342;-1.534;2023-02-19T01:07:26;99384.51;;;9.10;71.28
56689;BME280;42565;53.342;-1.534;2023-02-19T01:09:53;99379.51;;;8.45;73.17
56689;BME280;42565;53.342;-1.534;2023-02-19T01:12:20;99372.38;;;9.09;71.17
56689;BME280;42565;53.342;-1.534;2023-02-19T01:14:46;99367.11;;;8.45;71.75
56689;BME280;42565;53.342;-1.534;2023-02-19T01:17:13;99366.13;;;8.71;71.74
56689;BME280;42565;53.342;-1.534;2023-02-19T01:19:41;99363.57;;;8.70;71.60
56689;BME280;42565;53.342;-1.534;2023-02-19T01:22:07;99365.79;;;8.46;72.46
56689;BME280;42565;53.342;-1.534;2023-02-19T01:24:34;99363.30;;;8.78;72.48
56689;BME280;42565;53.342;-1.534;2023-02-19T01:27:02;99370.20;;;8.65;70.68
56689;BME280;42565;53.342;-1.534;2023-02-19T01:29:28;99375.69;;;8.13;73.32
56689;BME280;42565;53.342;-1.534;2023-02-19T01:31:56;99376.65;;;8.26;73.36
56689;BME280;42565;53.342;-1.534;2023-02-19T01:34:23;99376.44;;;8.86;72.62
56689;BME280;42565;53.342;-1.534;2023-02-19T01:36:50;99394.09;;;8.60;72.45
56689;BME280;42565;53.342;-1.534;2023-02-19T01:39:17;99408.04;;;8.70;73.44
56689;BME280;42565;53.342;-1.534;2023-02-19T01:41:44;99405.50;;;8.13;74.71
56689;BME280;42565;53.342;-1.534;2023-02-19T01:45:17;99415.18;;;8.61;73.69
56689;BME280;42565;53.342;-1.534;2023-02-19T01:47:49;99418.01;;;8.57;73.78
56689;BME280;42565;53.342;-1.534;2023-02-19T01:50:19;99431.73;;;8.54;73.24
56689;BME280;42565;53.342;-1.534;2023-02-19T01:52:46;99429.30;;;9.06;71.09
56689;BME280;42565;53.342;-1.534;2023-02-19T01:55:14;99453.97;;;9.08;69.73
56689;BME280;42565;53.342;-1.534;2023-02-19T01:57:45;99453.96;;;9.65;68.59
56689;BME280;42565;53.342;-1.534;2023-02-19T02:00:15;99463.39;;;9.29;69.44
56689;BME280;42565;53.342;-1.534;2023-02-19T02:02:48;99471.76;;;8.59;68.59
56689;BME280;42565;53.342;-1.534;2023-02-19T02:05:22;99474.76;;;8.87;67.70
56689;BME280;42565;53.342;-1.534;2023-02-19T02:07:50;99488.40;;;8.41;67.43
56689;BME280;42565;53.342;-1.534;2023-02-19T02:10:18;99490.74;;;8.31;67.02
56689;BME280;42565;53.342;-1.534;2023-02-19T02:12:45;99493.30;;;7.99;67.69
56689;BME280;42565;53.342;-1.534;2023-02-19T02:15:14;99480.89;;;7.91;68.15
56689;BME280;42565;53.342;-1.534;2023-02-19T02:17:50;99465.14;;;7.27;69.73
56689;BME280;42565;53.342;-1.534;2023-02-19T02:20:31;99470.80;;;7.68;68.04
56689;BME280;42565;53.342;-1.534;2023-02-19T02:23:08;99462.89;;;7.79;67.49
56689;BME280;42565;53.342;-1.534;2023-02-19T02:25:55;99465.87;;;7.38;68.55
56689;BME280;42565;53.342;-1.534;2023-02-19T02:28:42;99457.09;;;7.46;68.00
56689;BME280;42565;53.342;-1.534;2023-02-19T02:31:16;99463.26;;;7.28;68.28
56689;BME280;42565;53.342;-1.534;2023-02-19T02:33:48;99462.26;;;6.86;69.29
56689;BME280;42565;53.342;-1.534;2023-02-19T02:36:22;99455.13;;;6.96;70.11
56689;BME280;42565;53.342;-1.534;2023-02-19T02:38:51;99456.91;;;7.01;69.57
56689;BME280;42565;53.342;-1.534;2023-02-19T02:41:19;99462.29;;;6.69;69.88
56689;BME280;42565;53.342;-1.534;2023-02-19T02:43:46;99462.09;;;6.57;70.92
56689;BME280;42565;53.342;-1.534;2023-02-19T02:46:17;99468.51;;;6.23;71.54
56689;BME280;42565;53.342;-1.534;2023-02-19T02:48:47;99470.45;;;6.28;71.05
56689;BME280;42565;53.342;-1.534;2023-02-19T02:51:19;99472.62;;;6.01;70.81
56689;BME280;42565;53.342;-1.534;2023-02-19T02:53:50;99466.43;;;5.88;70.96
56689;BME280;42565;53.342;-1.534;2023-02-19T02:56:19;99467.13;;;6.02;70.92
56689;BME280;42565;53.342;-1.534;2023-02-19T02:58:48;99466.89;;;6.33;68.76
56689;BME280;42565;53.342;-1.534;2023-02-19T03:01:19;99460.54;;;5.88;69.81
56689;BME280;42565;53.342;-1.534;2023-02-19T03:03:54;99465.98;;;6.44;67.92
56689;BME280;42565;53.342;-1.534;2023-02-19T03:06:25;99490.97;;;7.04;65.54
56689;BME280;42565;53.342;-1.534;2023-02-19T03:08:58;99493.60;;;6.70;66.27
56689;BME280;42565;53.342;-1.534;2023-02-19T03:11:30;99490.83;;;5.85;68.24
56689;BME280;42565;53.342;-1.534;2023-02-19T03:14:02;99505.03;;;6.46;67.43
56689;BME280;42565;53.342;-1.534;2023-02-19T03:16:33;99515.26;;;6.19;66.76
56689;BME280;42565;53.342;-1.534;2023-02-19T03:19:04;99535.33;;;6.29;66.72
56689;BME280;42565;53.342;-1.534;2023-02-19T03:21:35;99549.58;;;6.56;67.05
56689;BME280;42565;53.342;-1.534;2023-02-19T03:24:06;99560.32;;;6.18;67.09
56689;BME280;42565;53.342;-1.534;2023-02-19T03:26:37;99566.71;;;6.41;67.09
56689;BME280;42565;53.342;-1.534;2023-02-19T03:29:06;99579.05;;;6.62;65.82
56689;BME280;42565;53.342;-1.534;2023-02-19T03:31:34;99580.14;;;6.82;65.33
56689;BME280;42565;53.342;-1.534;2023-02-19T03:34:08;99609.19;;;6.90;64.44
56689;BME280;42565;53.342;-1.534;2023-02-19T03:36:39;99604.70;;;6.70;64.81
56689;BME280;42565;53.342;-1.534;2023-02-19T03:39:12;99605.64;;;6.73;65.19
56689;BME280;42565;53.342;-1.534;2023-02-19T03:41:45;99599.68;;;6.90;64.51
56689;BME280;42565;53.342;-1.534;2023-02-19T03:44:17;99606.83;;;6.83;65.35
56689;BME280;42565;53.342;-1.534;2023-02-19T03:46:54;99616.34;;;6.51;65.19
56689;BME280;42565;53.342;-1.534;2023-02-19T03:49:27;99624.87;;;6.39;66.62
56689;BME280;42565;53.342;-1.534;2023-02-19T03:52:01;99626.61;;;6.49;66.45
56689;BME280;42565;53.342;-1.534;2023-02-19T03:54:38;99632.14;;;6.63;65.73
56689;BME280;42565;53.342;-1.534;2023-02-19T03:57:15;99640.99;;;7.64;63.60
56689;BME280;42565;53.342;-1.534;2023-02-19T03:59:49;99653.45;;;7.01;64.34
56689;BME280;42565;53.342;-1.534;2023-02-19T04:02:26;99665.27;;;7.00;64.74
56689;BME280;42565;53.342;-1.534;2023-02-19T04:04:59;99675.74;;;6.74;65.88
56689;BME280;42565;53.342;-1.534;2023-02-19T04:07:32;99680.80;;;6.86;66.13
56689;BME280;42565;53.342;-1.534;2023-02-19T04:10:03;99679.22;;;7.34;65.05
56689;BME280;42565;53.342;-1.534;2023-02-19T04:12:31;99678.75;;;6.78;65.25
56689;BME280;42565;53.342;-1.534;2023-02-19T04:15:02;99691.65;;;7.65;63.94
56689;BME280;42565;53.342;-1.534;2023-02-19T04:17:35;99690.27;;;7.48;63.68
56689;BME280;42565;53.342;-1.534;2023-02-19T04:20:08;99696.97;;;7.65;63.59
56689;BME280;42565;53.342;-1.534;2023-02-19T04:22:36;99697.85;;;7.24;63.76
56689;BME280;42565;53.342;-1.534;2023-02-19T04:25:04;99698.87;;;7.58;63.85
56689;BME280;42565;53.342;-1.534;2023-02-19T04:27:35;99695.60;;;7.81;62.17
56689;BME280;42565;53.342;-1.534;2023-02-19T04:30:03;99697.70;;;7.31;61.78
56689;BME280;42565;53.342;-1.534;2023-02-19T04:32:31;99695.46;;;7.38;61.15
56689;BME280;42565;53.342;-1.534;2023-02-19T04:34:58;99697.93;;;7.09;62.25
56689;BME280;42565;53.342;-1.534;2023-02-19T04:37:25;99697.10;;;7.33;62.66
56689;BME280;42565;53.342;-1.534;2023-02-19T04:39:53;99704.06;;;6.64;64.26
56689;BME280;42565;53.342;-1.534;2023-02-19T04:42:20;99716.45;;;6.59;65.37
56689;BME280;42565;53.342;-1.534;2023-02-19T04:44:46;99719.12;;;6.63;64.43
56689;BME280;42565;53.342;-1.534;2023-02-19T04:47:13;99727.13;;;6.84;64.15
56689;BME280;42565;53.342;-1.534;2023-02-19T04:49:40;99726.73;;;6.79;64.06
56689;BME280;42565;53.342;-1.534;2023-02-19T04:52:06;99729.34;;;6.58;64.53
56689;BME280;42565;53.342;-1.534;2023-02-19T04:54:33;99731.10;;;6.42;64.18
56689;BME280;42565;53.342;-1.534;2023-02-19T04:57:01;99740.78;;;7.25;62.76
56689;BME280;42565;53.342;-1.534;2023-02-19T04:59:29;99745.26;;;7.39;62.75
56689;BME280;42565;53.342;-1.534;2023-02-19T05:01:56;99749.58;;;7.47;61.83
56689;BME280;42565;53.342;-1.534;2023-02-19T05:04:23;99745.42;;;7.44;61.96
56689;BME280;42565;53.342;-1.534;2023-02-19T05:06:50;99751.41;;;6.89;62.28
56689;BME280;42565;53.342;-1.534;2023-02-19T05:09:17;99752.92;;;7.39;62.44
56689;BME280;42565;53.342;-1.534;2023-02-19T05:11:44;99750.71;;;7.11;61.85
56689;BME280;42565;53.342;-1.534;2023-02-19T05:14:11;99751.87;;;7.41;62.03
56689;BME280;42565;53.342;-1.534;2023-02-19T05:16:39;99748.14;;;7.03;62.61
56689;BME280;42565;53.342;-1.534;2023-02-19T05:19:06;99745.19;;;6.52;64.68
56689;BME280;42565;53.342;-1.534;2023-02-19T05:21:32;99743.47;;;5.86;65.78
56689;BME280;42565;53.342;-1.534;2023-02-19T05:23:59;99750.55;;;6.78;63.79
56689;BME280;42565;53.342;-1.534;2023-02-19T05:26:26;99761.07;;;7.01;62.54
56689;BME280;42565;53.342;-1.534;2023-02-19T05:28:53;99769.31;;;6.98;62.84
56689;BME280;42565;53.342;-1.534;2023-02-19T05:31:20;99771.37;;;6.99;62.72
56689;BME280;42565;53.342;-1.534;2023-02-19T05:33:48;99782.02;;;7.38;61.06
56689;BME280;42565;53.342;-1.534;2023-02-19T05:36:17;99794.73;;;7.40;59.86
56689;BME280;42565;53.342;-1.534;2023-02-19T05:38:44;99808.08;;;8.07;58.16
56689;BME280;42565;53.342;-1.534;2023-02-19T05:41:12;99809.04;;;7.91;58.16
56689;BME280;42565;53.342;-1.534;2023-02-19T05:43:42;99814.92;;;7.83;58.69
56689;BME280;42565;53.342;-1.534;2023-02-19T05:46:11;99822.03;;;8.14;57.56
56689;BME280;42565;53.342;-1.534;2023-02-19T05:48:39;99829.15;;;7.67;57.86
56689;BME280;42565;53.342;-1.534;2023-02-19T05:51:08;99826.98;;;7.31;58.85
56689;BME280;42565;53.342;-1.534;2023-02-19T05:53:36;99828.41;;;7.63;58.77
56689;BME280;42565;53.342;-1.534;2023-02-19T05:56:04;99827.55;;;7.44;58.78
56689;BME280;42565;53.342;-1.534;2023-02-19T05:58:45;99825.42;;;7.48;58.83
56689;BME280;42565;53.342;-1.534;2023-02-19T06:01:14;99830.01;;;7.10;60.23
56689;BME280;42565;53.342;-1.534;2023-02-19T06:03:42;99830.22;;;7.09;60.37
56689;BME280;42565;53.342;-1.534;2023-02-19T06:06:09;99827.88;;;7.18;61.05
56689;BME280;42565;53.342;-1.534;2023-02-19T06:08:38;99817.97;;;7.12;60.99
56689;BME280;42565;53.342;-1.534;2023-02-19T06:11:05;99813.90;;;7.05;61.40
56689;BME280;42565;53.342;-1.534;2023-02-19T06:13:32;99805.93;;;7.38;60.53
56689;BME280;42565;53.342;-1.534;2023-02-19T06:15:58;99808.76;;;7.69;59.98
56689;BME280;42565;53.342;-1.534;2023-02-19T06:18:26;99812.24;;;7.97;58.40
56689;BME280;42565;53.342;-1.534;2023-02-19T06:20:53;99815.47;;;7.72;58.61
56689;BME280;42565;53.342;-1.534;2023-02-19T06:23:19;99816.20;;;7.46;58.88
56689;BME280;42565;53.342;-1.534;2023-02-19T06:25:46;99823.86;;;7.62;59.65
56689;BME280;42565;53.342;-1.534;2023-02-19T06:28:14;99831.06;;;7.34;59.53
56689;BME280;42565;53.342;-1.534;2023-02-19T06:30:40;99842.86;;;7.65;59.04
56689;BME280;42565;53.342;-1.534;2023-02-19T06:33:07;99856.47;;;7.74;59.80
56689;BME280;42565;53.342;-1.534;2023-02-19T06:35:35;99864.07;;;7.90;58.63
56689;BME280;42565;53.342;-1.534;2023-02-19T06:38:02;99859.90;;;7.75;58.78
56689;BME280;42565;53.342;-1.534;2023-02-19T06:40:29;99865.49;;;7.81;59.00
56689;BME280;42565;53.342;-1.534;2023-02-19T06:42:56;99867.71;;;7.85;58.55
56689;BME280;42565;53.342;-1.534;2023-02-19T06:45:22;99872.44;;;7.10;59.87
56689;BME280;42565;53.342;-1.534;2023-02-19T06:47:49;99873.16;;;7.32;58.90
56689;BME280;42565;53.342;-1.534;2023-02-19T06:50:16;99863.16;;;7.56;59.28
56689;BME280;42565;53.342;-1.534;2023-02-19T06:52:43;99864.98;;;7.34;59.52
56689;BME280;42565;53.342;-1.534;2023-02-19T06:55:10;99894.82;;;7.33;59.34
56689;BME280;42565;53.342;-1.534;2023-02-19T06:57:37;99907.50;;;7.35;60.25
56689;BME280;42565;53.342;-1.534;2023-02-19T07:00:04;99892.04;;;7.26;60.10
56689;BME280;42565;53.342;-1.534;2023-02-19T07:02:31;99878.77;;;6.59;61.66
56689;BME280;42565;53.342;-1.534;2023-02-19T07:04:59;99881.59;;;6.81;61.48
56689;BME280;42565;53.342;-1.534;2023-02-19T07:07:26;99892.18;;;6.24;62.41
56689;BME280;42565;53.342;-1.534;2023-02-19T07:09:53;99880.88;;;6.33;62.84
56689;BME280;42565;53.342;-1.534;2023-02-19T07:12:20;99877.34;;;6.71;61.72
56689;BME280;42565;53.342;-1.534;2023-02-19T07:14:47;99873.38;;;6.51;61.83
56689;BME280;42565;53.342;-1.534;2023-02-19T07:17:13;99865.96;;;6.30;62.19
56689;BME280;42565;53.342;-1.534;2023-02-19T07:19:40;99866.40;;;6.81;61.36
56689;BME280;42565;53.342;-1.534;2023-02-19T07:22:07;99867.49;;;6.41;61.46
56689;BME280;42565;53.342;-1.534;2023-02-19T07:24:34;99859.36;;;6.33;62.06
56689;BME280;42565;53.342;-1.534;2023-02-19T07:27:00;99836.95;;;6.19;62.21
56689;BME280;42565;53.342;-1.534;2023-02-19T07:29:27;99830.83;;;6.46;61.45
56689;BME280;42565;53.342;-1.534;2023-02-19T07:31:54;99830.99;;;6.85;60.29
56689;BME280;42565;53.342;-1.534;2023-02-19T07:34:21;99842.94;;;7.26;59.84
56689;BME280;42565;53.342;-1.534;2023-02-19T07:36:47;99855.52;;;7.19;59.34
56689;BME280;42565;53.342;-1.534;2023-02-19T07:39:14;99864.50;;;7.48;57.73
56689;BME280;42565;53.342;-1.534;2023-02-19T07:41:41;99868.86;;;8.30;56.25
56689;BME280;42565;53.342;-1.534;2023-02-19T07:44:07;99868.53;;;8.06;56.66
56689;BME280;42565;53.342;-1.534;2023-02-19T07:46:34;99862.36;;;8.13;56.17
56689;BME280;42565;53.342;-1.534;2023-02-19T07:49:01;99874.39;;;8.67;55.07
56689;BME280;42565;53.342;-1.534;2023-02-19T07:51:28;99881.84;;;8.40;54.83
56689;BME280;42565;53.342;-1.534;2023-02-19T07:53:56;99890.03;;;8.89;54.14
56689;BME280;42565;53.342;-1.534;2023-02-19T07:56:24;99887.86;;;8.80;54.40
56689;BME280;42565;53.342;-1.534;2023-02-19T07:58:51;99901.70;;;8.47;55.36
56689;BME280;42565;53.342;-1.534;2023-02-19T08:01:20;99906.29;;;8.78;54.39
56689;BME280;42565;53.342;-1.534;2023-02-19T08:03:47;99915.32;;;9.39;53.43
56689;BME280;42565;53.342;-1.534;2023-02-19T08:06:14;99924.80;;;9.52;52.49
56689;BME280;42565;53.342;-1.534;2023-02-19T08:08:41;99932.06;;;9.55;52.18
56689;BME280;42565;53.342;-1.534;2023-02-19T08:11:09;99935.33;;;9.73;51.54
56689;BME280;42565;53.342;-1.534;2023-02-19T08:13:35;99926.68;;;10.43;50.70
56689;BME280;42565;53.342;-1.534;2023-02-19T08:16:12;99928.70;;;10.93;49.93
56689;BME280;42565;53.342;-1.534;2023-02-19T08:18:39;99931.01;;;11.03;48.77
56689;BME280;42565;53.342;-1.534;2023-02-19T08:21:06;99934.00;;;10.85;49.60
56689;BME280;42565;53.342;-1.534;2023-02-19T08:23:33;99915.31;;;10.94;49.38
56689;BME280;42565;53.342;-1.534;2023-02-19T08:26:01;99903.11;;;10.24;50.96
56689;BME280;42565;53.342;-1.534;2023-02-19T08:28:29;99888.37;;;9.68;52.15
56689;BME280;42565;53.342;-1.534;2023-02-19T08:30:59;99878.15;;;9.54;54.20
56689;BME280;42565;53.342;-1.534;2023-02-19T08:33:26;99877.11;;;8.18;57.20
56689;BME280;42565;53.342;-1.534;2023-02-19T08:35:54;99885.77;;;7.96;59.34
56689;BME280;42565;53.342;-1.534;2023-02-19T08:38:22;99880.95;;;8.34;59.42
56689;BME280;42565;53.342;-1.534;2023-02-19T08:40:49;99878.54;;;7.96;59.98
56689;BME280;42565;53.342;-1.534;2023-02-19T08:43:16;99878.45;;;7.76;59.98
56689;BME280;42565;53.342;-1.534;2023-02-19T08:45:44;99889.21;;;7.67;60.83
56689;BME280;42565;53.342;-1.534;2023-02-19T08:48:12;99885.59;;;7.92;60.85
56689;BME280;42565;53.342;-1.534;2023-02-19T08:50:39;99899.55;;;8.36;59.70
56689;BME280;42565;53.342;-1.534;2023-02-19T08:53:07;99914.39;;;8.84;57.74
56689;BME280;42565;53.342;-1.534;2023-02-19T08:55:36;99912.78;;;9.32;56.65
56689;BME280;42565;53.342;-1.534;2023-02-19T08:58:04;99922.55;;;10.00;55.45
56689;BME280;42565;53.342;-1.534;2023-02-19T09:00:31;99929.13;;;9.30;55.60
56689;BME280;42565;53.342;-1.534;2023-02-19T09:02:58;99934.65;;;10.32;53.54
56689;BME280;42565;53.342;-1.534;2023-02-19T09:05:25;99936.18;;;10.62;51.59
56689;BME280;42565;53.342;-1.534;2023-02-19T09:07:52;99941.33;;;10.53;52.48
56689;BME280;42565;53.342;-1.534;2023-02-19T09:10:19;99924.71;;;10.92;51.29
56689;BME280;42565;53.342;-1.534;2023-02-19T09:12:46;99928.43;;;10.20;53.22
56689;BME280;42565;53.342;-1.534;2023-02-19T09:15:14;99932.73;;;10.09;52.92
56689;BME280;42565;53.342;-1.534;2023-02-19T09:17:41;99936.28;;;9.94;53.56
56689;BME280;42565;53.342;-1.534;2023-02-19T09:20:10;99932.04;;;10.61;52.99
56689;BME280;42565;53.342;-1.534;2023-02-19T09:22:37;99941.90;;;10.79;52.03
56689;BME280;42565;53.342;-1.534;2023-02-19T09:25:05;99954.62;;;9.99;52.75
56689;BME280;42565;53.342;-1.534;2023-02-19T09:27:32;99943.18;;;10.36;52.98
56689;BME280;42565;53.342;-1.534;2023-02-19T09:29:59;99943.60;;;10.63;51.86
56689;BME280;42565;53.342;-1.534;2023-02-19T09:32:29;99938.05;;;10.32;52.13
56689;BME280;42565;53.342;-1.534;2023-02-19T09:34:56;99933.44;;;10.41;51.74
56689;BME280;42565;53.342;-1.534;2023-02-19T09:37:25;99927.17;;;10.73;52.14
56689;BME280;42565;53.342;-1.534;2023-02-19T09:39:52;99921.83;;;11.25;49.92
56689;BME280;42565;53.342;-1.534;2023-02-19T09:42:22;99924.30;;;10.81;52.33
56689;BME280;42565;53.342;-1.534;2023-02-19T09:44:52;99913.93;;;10.25;51.68
56689;BME280;42565;53.342;-1.534;2023-02-19T09:47:23;99908.68;;;10.30;52.69
56689;BME280;42565;53.342;-1.534;2023-02-19T09:49:53;99909.90;;;10.27;53.21
56689;BME280;42565;53.342;-1.534;2023-02-19T09:52:29;99925.74;;;9.78;55.15
56689;BME280;42565;53.342;-1.534;2023-02-19T09:55:01;99922.27;;;9.73;55.10
56689;BME280;42565;53.342;-1.534;2023-02-19T09:57:30;99918.56;;;9.31;55.29
56689;BME280;42565;53.342;-1.534;2023-02-19T10:00:03;99918.79;;;9.63;54.99
56689;BME280;42565;53.342;-1.534;2023-02-19T10:02:31;99918.09;;;9.77;55.29
56689;BME280;42565;53.342;-1.534;2023-02-19T10:04:59;99921.38;;;10.15;53.83
56689;BME280;42565;53.342;-1.534;2023-02-19T10:07:34;99922.87;;;9.88;54.20
56689;BME280;42565;53.342;-1.534;2023-02-19T10:10:20;99931.08;;;9.84;55.37
56689;BME280;42565;53.342;-1.534;2023-02-19T10:12:53;99920.65;;;9.35;56.40
56689;BME280;42565;53.342;-1.534;2023-02-19T10:15:26;99916.64;;;9.29;57.72
56689;BME280;42565;53.342;-1.534;2023-02-19T10:17:55;99924.60;;;9.05;58.15
56689;BME280;42565;53.342;-1.534;2023-02-19T10:20:24;99922.42;;;9.22;58.70
56689;BME280;42565;53.342;-1.534;2023-02-19T10:22:57;99923.50;;;8.94;58.84
56689;BME280;42565;53.342;-1.534;2023-02-19T10:25:26;99912.32;;;8.60;60.25
56689;BME280;42565;53.342;-1.534;2023-02-19T10:27:53;99906.31;;;8.69;59.07
56689;BME280;42565;53.342;-1.534;2023-02-19T10:30:23;99910.25;;;9.64;58.80
56689;BME280;42565;53.342;-1.534;2023-02-19T10:33:00;99921.36;;;9.74;57.40
56689;BME280;42565;53.342;-1.534;2023-02-19T10:35:27;99914.01;;;9.73;56.15
56689;BME280;42565;53.342;-1.534;2023-02-19T10:37:55;99906.53;;;10.40;55.24
56689;BME280;42565;53.342;-1.534;2023-02-19T10:40:25;99911.26;;;9.68;56.34
56689;BME280;42565;53.342;-1.534;2023-02-19T10:42:55;99913.69;;;9.65;55.73
56689;BME280;42565;53.342;-1.534;2023-02-19T10:45:24;99920.28;;;9.68;56.86
56689;BME280;42565;53.342;-1.534;2023-02-19T10:47:56;99924.39;;;9.27;58.32
56689;BME280;42565;53.342;-1.534;2023-02-19T10:50:27;99928.12;;;9.13;58.80
56689;BME280;42565;53.342;-1.534;2023-02-19T10:52:57;99924.06;;;8.76;59.74
56689;BME280;42565;53.342;-1.534;2023-02-19T10:55:28;99927.06;;;8.88;59.90
56689;BME280;42565;53.342;-1.534;2023-02-19T10:57:56;99926.68;;;8.80;60.21
56689;BME280;42565;53.342;-1.534;2023-02-19T11:00:25;99926.88;;;8.68;61.05
56689;BME280;42565;53.342;-1.534;2023-02-19T11:03:25;99922.25;;;8.59;60.66
56689;BME280;42565;53.342;-1.534;2023-02-19T11:06:01;99920.51;;;8.56;61.75
56689;BME280;42565;53.342;-1.534;2023-02-19T11:08:29;99910.83;;;7.88;62.27
56689;BME280;42565;53.342;-1.534;2023-02-19T11:11:00;99899.62;;;8.44;62.21
56689;BME280;42565;53.342;-1.534;2023-02-19T11:13:29;99894.18;;;8.16;62.26
56689;BME280;42565;53.342;-1.534;2023-02-19T11:15:58;99908.65;;;8.27;63.48
56689;BME280;42565;53.342;-1.534;2023-02-19T11:18:27;99910.38;;;8.07;63.25
56689;BME280;42565;53.342;-1.534;2023-02-19T11:20:57;99916.30;;;8.20;63.90
56689;BME280;42565;53.342;-1.534;2023-02-19T11:23:26;99903.68;;;8.07;64.42
56689;BME280;42565;53.342;-1.534;2023-02-19T11:25:56;99923.71;;;8.01;64.80
56689;BME280;42565;53.342;-1.534;2023-02-19T11:28:30;99926.33;;;8.26;64.26
56689;BME280;42565;53.342;-1.534;2023-02-19T11:31:14;99928.58;;;8.44;64.70
56689;BME280;42565;53.342;-1.534;2023-02-19T11:33:53;99937.10;;;7.96;66.38
56689;BME280;42565;53.342;-1.534;2023-02-19T11:36:24;99948.04;;;8.26;66.46
56689;BME280;42565;53.342;-1.534;2023-02-19T11:38:52;99933.02;;;8.27;65.50
56689;BME280;42565;53.342;-1.534;2023-02-19T11:41:37;99935.20;;;8.80;65.19
56689;BME280;42565;53.342;-1.534;2023-02-19T11:44:20;99920.29;;;8.96;65.05
56689;BME280;42565;53.342;-1.534;2023-02-19T11:47:00;99925.76;;;8.90;64.33
56689;BME280;42565;53.342;-1.534;2023-02-19T11:49:39;99925.17;;;8.42;65.44
56689;BME280;42565;53.342;-1.534;2023-02-19T11:52:18;99936.60;;;8.48;67.19
56689;BME280;42565;53.342;-1.534;2023-02-19T11:54:53;99923.91;;;8.20;66.59
56689;BME280;42565;53.342;-1.534;2023-02-19T11:57:34;99908.04;;;8.27;67.86
56689;BME280;42565;53.342;-1.534;2023-02-19T12:00:18;99889.28;;;8.57;66.68
56689;BME280;42565;53.342;-1.534;2023-02-19T12:03:08;99900.56;;;8.60;66.37
56689;BME280;42565;53.342;-1.534;2023-02-19T12:05:49;99880.58;;;9.20;64.10
56689;BME280;42565;53.342;-1.534;2023-02-19T12:08:40;99849.87;;;9.80;62.27
56689;BME280;42565;53.342;-1.534;2023-02-19T12:11:26;99866.15;;;10.22;60.44
56689;BME280;42565;53.342;-1.534;2023-02-19T12:14:16;99871.16;;;9.78;61.10
56689;BME280;42565;53.342;-1.534;2023-02-19T12:16:50;99865.17;;;9.18;64.04
56689;BME280;42565;53.342;-1.534;2023-02-19T12:19:29;99865.92;;;9.21;64.28
56689;BME280;42565;53.342;-1.534;2023-02-19T12:22:13;99850.10;;;8.99;64.85
56689;BME280;42565;53.342;-1.534;2023-02-19T12:25:06;99865.90;;;9.26;63.83
56689;BME280;42565;53.342;-1.534;2023-02-19T12:27:48;99870.29;;;9.32;64.34
56689;BME280;42565;53.342;-1.534;2023-02-19T12:30:37;99879.70;;;9.28;64.75
56689;BME280;42565;53.342;-1.534;2023-02-19T12:33:25;99891.88;;;8.53;66.23
56689;BME280;42565;53.342;-1.534;2023-02-19T12:36:05;99891.90;;;9.46;64.66
56689;BME280;42565;53.342;-1.534;2023-02-19T12:38:43;99892.03;;;9.94;63.59
56689;BME280;42565;53.342;-1.534;2023-02-19T12:41:18;99914.97;;;9.90;63.13
56689;BME280;42565;53.342;-1.534;2023-02-19T12:43:53;99919.64;;;10.64;60.89
56689;BME280;42565;53.342;-1.534;2023-02-19T12:46:27;99935.35;;;10.73;60.04
56689;BME280;42565;53.342;-1.534;2023-02-19T12:48:58;99935.98;;;11.86;57.27
56689;BME280;42565;53.342;-1.534;2023-02-19T12:51:31;99938.39;;;12.21;54.90
56689;BME280;42565;53.342;-1.534;2023-02-19T12:54:02;99936.49;;;12.64;53.78
56689;BME280;42565;53.342;-1.534;2023-02-19T12:56:35;99945.74;;;12.21;53.66
56689;BME280;42565;53.342;-1.534;2023-02-19T12:59:09;99953.75;;;12.32;54.66
56689;BME280;42565;53.342;-1.534;2023-02-19T13:01:42;99960.47;;;12.32;53.96
56689;BME280;42565;53.342;-1.534;2023-02-19T13:04:20;99942.98;;;12.08;53.84
56689;BME280;42565;53.342;-1.534;2023-02-19T13:06:52;99938.02;;;12.32;52.81
56689;BME280;42565;53.342;-1.534;2023-02-19T13:09:24;99929.73;;;13.22;51.86
56689;BME280;42565;53.342;-1.534;2023-02-19T13:11:57;99912.08;;;13.15;50.04
56689;BME280;42565;53.342;-1.534;2023-02-19T13:14:27;99932.46;;;13.23;50.76
56689;BME280;42565;53.342;-1.534;2023-02-19T13:16:59;99917.87;;;12.91;50.45